Altus, Oklahoma
Current Conditions -  °F | °C
As of 4:58 PM on Wednesday 22 Oct 2014 (Local Time) from KLTS Reporting Station
Light Rain Light Rain  
Wind Chill: 18°   Ceiling: 7000
Heat Index: 18°   Visibility: 9mi
Dew Point: 17°   Wind: 6mph
Humidity: 92%   Direction: 250°WSW
Pressure: 30.1"   Gusts: NA
Location:  34.64°N, 99.33°W
Report Text: KLTS 222158Z 25005KT 9SM -RA OVC070 18/17 A3010 RMK AO2A RAB2107DZB2103E2131 SLP188 P0000 T01810167 $
Loading
Personal Weather Stations






























Interactive Weather Map
Tropical Storm Tracking
New forecast layout! Learn more

10-Day Weather Forecast

Advertisements
Track Severe Weather on mobile